createdAt,value
2019-05-05T00:00:48.356Z,11.10
2019-05-05T00:03:18.402Z,10.60
2019-05-05T00:05:48.428Z,11.70
2019-05-05T00:08:16.885Z,10.40
2019-05-05T00:11:05.100Z,11.67
2019-05-05T00:13:41.156Z,11.13
2019-05-05T00:16:27.665Z,13.23
2019-05-05T00:18:57.778Z,12.77
2019-05-05T00:21:26.237Z,14.53
2019-05-05T00:23:55.373Z,13.87
2019-05-05T00:26:24.468Z,14.00
2019-05-05T00:28:55.224Z,14.37
2019-05-05T00:31:24.228Z,14.30
2019-05-05T00:33:54.422Z,14.60
2019-05-05T00:36:24.604Z,13.30
2019-05-05T00:38:55.222Z,13.43
2019-05-05T00:41:25.377Z,13.93
2019-05-05T00:43:55.405Z,13.80
2019-05-05T00:46:41.831Z,13.77
2019-05-05T00:49:10.225Z,14.03
2019-05-05T00:51:38.629Z,13.53
2019-05-05T00:54:07.016Z,13.17
2019-05-05T00:56:35.481Z,15.17
2019-05-05T00:59:11.504Z,14.63
2019-05-05T01:01:57.712Z,15.63
2019-05-05T01:04:36.810Z,15.00
2019-05-05T01:07:05.333Z,14.33
2019-05-05T01:09:35.355Z,15.33
2019-05-05T01:12:05.384Z,15.63
2019-05-05T01:14:34.246Z,15.60
2019-05-05T01:17:05.155Z,13.90
2019-05-05T01:19:34.941Z,15.30
2019-05-05T01:22:04.937Z,15.37
2019-05-05T01:24:34.284Z,15.57
2019-05-05T01:27:04.830Z,15.40
2019-05-05T01:29:34.650Z,14.97
2019-05-05T01:32:05.169Z,15.37
2019-05-05T01:34:35.240Z,15.07
2019-05-05T01:37:05.264Z,16.60
2019-05-05T01:39:38.320Z,15.77
2019-05-05T01:42:11.476Z,16.47
2019-05-05T01:44:39.861Z,16.27
2019-05-05T01:47:08.320Z,15.57
2019-05-05T01:49:36.708Z,16.53
2019-05-05T01:52:05.178Z,15.93
2019-05-05T01:54:35.271Z,15.33
2019-05-05T01:57:05.427Z,17.13
2019-05-05T01:59:35.419Z,16.87
2019-05-05T02:02:05.130Z,16.40
2019-05-05T02:04:34.306Z,14.80
2019-05-05T02:07:05.465Z,15.40
2019-05-05T02:09:35.503Z,16.33
2019-05-05T02:12:05.260Z,15.27
2019-05-05T02:14:35.237Z,14.90
2019-05-05T02:17:05.067Z,16.33
2019-05-05T02:19:35.008Z,16.00
2019-05-05T02:22:05.375Z,14.63
2019-05-05T02:24:35.334Z,15.13
2019-05-05T02:27:05.179Z,14.20
2019-05-05T02:29:38.996Z,14.43
2019-05-05T02:32:21.437Z,15.33
2019-05-05T02:34:51.481Z,15.80
2019-05-05T02:37:19.944Z,15.80
2019-05-05T02:39:57.840Z,15.50
2019-05-05T02:42:21.470Z,13.57
2019-05-05T02:44:54.292Z,13.63
2019-05-05T02:47:29.597Z,14.50
2019-05-05T02:50:01.122Z,13.67
2019-05-05T02:52:34.704Z,13.47
2019-05-05T02:55:05.625Z,13.77
2019-05-05T02:57:35.856Z,13.50
2019-05-05T03:00:08.512Z,13.07
2019-05-05T03:02:38.386Z,13.90
2019-05-05T03:05:06.910Z,14.20
2019-05-05T03:07:37.145Z,12.83
2019-05-05T03:10:08.140Z,12.00
2019-05-05T03:12:39.612Z,12.83
2019-05-05T03:15:09.733Z,13.07
2019-05-05T03:17:38.909Z,12.50
2019-05-05T03:20:09.336Z,13.10
2019-05-05T03:22:38.569Z,12.17
2019-05-05T03:25:07.031Z,13.30
2019-05-05T03:27:36.177Z,14.13
2019-05-05T03:30:07.116Z,15.17
2019-05-05T03:32:36.199Z,15.60
2019-05-05T03:35:05.837Z,14.60
2019-05-05T03:37:34.414Z,13.77
2019-05-05T03:40:05.597Z,13.87
2019-05-05T03:42:44.178Z,13.70
2019-05-05T03:45:16.901Z,13.97
2019-05-05T03:47:46.839Z,13.47
2019-05-05T03:50:15.370Z,15.00
2019-05-05T03:52:45.021Z,15.50
2019-05-05T03:55:14.257Z,14.87
2019-05-05T03:57:44.615Z,14.37
2019-05-05T04:00:35.905Z,15.53
2019-05-05T04:03:05.953Z,15.77
2019-05-05T04:05:38.888Z,17.90
2019-05-05T04:08:08.140Z,19.73
2019-05-05T04:10:37.504Z,19.20
2019-05-05T04:13:05.892Z,17.33
2019-05-05T04:15:36.779Z,16.40
2019-05-05T04:18:06.831Z,17.27
2019-05-05T04:20:35.216Z,16.87
2019-05-05T04:23:03.879Z,15.23
2019-05-05T04:25:34.776Z,15.57
2019-05-05T04:28:04.440Z,13.70
2019-05-05T04:30:33.826Z,14.40
2019-05-05T04:33:03.927Z,13.90
2019-05-05T04:35:33.963Z,14.23
2019-05-05T04:38:04.160Z,13.43
2019-05-05T04:40:34.550Z,13.10
2019-05-05T04:43:03.901Z,12.57
2019-05-05T04:45:34.761Z,11.97
2019-05-05T04:48:11.138Z,11.53
2019-05-05T04:50:44.200Z,11.50
2019-05-05T04:55:55.485Z,11.87
2019-05-05T04:58:24.292Z,10.73
2019-05-05T05:00:54.659Z,10.97
2019-05-05T05:03:37.320Z,9.83
2019-05-05T05:06:07.357Z,9.67
2019-05-05T05:08:35.769Z,9.53
2019-05-05T05:11:04.156Z,10.00
2019-05-05T05:13:34.601Z,9.83
2019-05-05T05:16:04.510Z,8.33
2019-05-05T05:18:34.407Z,8.10
2019-05-05T05:21:03.956Z,8.70
2019-05-05T05:23:34.125Z,7.83
2019-05-05T05:26:05.027Z,10.20
2019-05-05T05:28:34.219Z,9.00
2019-05-05T05:31:04.018Z,8.53
2019-05-05T05:33:34.507Z,8.77
2019-05-05T05:36:04.022Z,8.63
2019-05-05T05:38:34.664Z,9.27
2019-05-05T05:41:10.276Z,8.13
2019-05-05T05:43:40.309Z,9.63
2019-05-05T05:46:28.544Z,8.40
2019-05-05T05:49:04.707Z,6.77
2019-05-05T05:51:34.095Z,6.73
2019-05-05T05:54:03.740Z,6.90
2019-05-05T05:56:34.273Z,6.80
2019-05-05T05:59:03.732Z,6.63
2019-05-05T06:01:34.492Z,6.10
2019-05-05T06:04:04.112Z,5.37
2019-05-05T06:06:34.643Z,5.37
2019-05-05T06:09:04.287Z,5.47
2019-05-05T06:11:34.450Z,6.00
2019-05-05T06:14:04.006Z,5.37
2019-05-05T06:16:34.127Z,5.10
2019-05-05T06:19:03.758Z,5.13
2019-05-05T06:21:33.886Z,5.20
2019-05-05T06:24:04.490Z,4.87
2019-05-05T06:26:34.298Z,4.80
2019-05-05T06:29:04.337Z,4.80
2019-05-05T06:31:34.284Z,4.90
2019-05-05T06:34:03.798Z,5.23
2019-05-05T06:36:34.002Z,5.40
2019-05-05T06:39:04.975Z,4.73
2019-05-05T06:41:35.001Z,5.80
2019-05-05T06:44:05.036Z,6.37
2019-05-05T06:46:40.989Z,6.73
2019-05-05T06:49:09.377Z,6.13
2019-05-05T06:51:37.777Z,6.47
2019-05-05T06:54:06.177Z,6.50
2019-05-05T06:56:34.537Z,6.73
2019-05-05T06:59:04.430Z,6.60
2019-05-05T07:01:33.783Z,6.43
2019-05-05T07:04:03.680Z,6.20
2019-05-05T07:06:34.222Z,6.73
2019-05-05T07:09:02.211Z,5.87
2019-05-05T07:11:30.576Z,7.00
2019-05-05T07:13:58.987Z,8.03
2019-05-05T07:16:27.382Z,6.90
2019-05-05T07:18:55.770Z,6.60
2019-05-05T07:21:24.162Z,6.67
2019-05-05T07:23:54.053Z,7.17
2019-05-05T07:26:23.733Z,5.90
2019-05-05T07:28:54.135Z,6.40
2019-05-05T07:31:23.839Z,6.40
2019-05-05T07:33:54.481Z,5.97
2019-05-05T07:39:18.061Z,6.17
2019-05-05T07:41:46.504Z,5.60
2019-05-05T07:44:25.850Z,5.57
2019-05-05T07:46:45.086Z,6.33
2019-05-05T07:49:13.992Z,6.50
2019-05-05T07:51:44.230Z,5.60
2019-05-05T07:54:14.553Z,5.70
2019-05-05T07:56:44.397Z,5.37
2019-05-05T07:59:14.553Z,4.87
2019-05-05T08:01:46.505Z,5.17
2019-05-05T08:04:13.992Z,5.60
2019-05-05T08:06:44.390Z,5.87
2019-05-05T08:09:14.450Z,5.43
2019-05-05T08:11:43.567Z,5.03
2019-05-05T08:14:14.556Z,6.33
2019-05-05T08:16:44.319Z,5.30
2019-05-05T08:19:17.061Z,5.47
2019-05-05T08:21:45.462Z,4.90
2019-05-05T08:24:15.472Z,6.90
2019-05-05T08:26:48.473Z,5.10
2019-05-05T08:29:30.468Z,4.90
2019-05-05T08:32:04.394Z,4.90
2019-05-05T08:34:33.995Z,4.93
2019-05-05T08:37:04.420Z,4.80
2019-05-05T08:39:46.125Z,5.00
2019-05-05T08:42:14.574Z,5.03
2019-05-05T08:44:44.756Z,5.23
2019-05-05T08:47:13.901Z,4.63
2019-05-05T08:49:44.279Z,4.40
2019-05-05T08:52:14.519Z,5.00
2019-05-05T08:54:44.641Z,4.70
2019-05-05T08:57:14.635Z,4.60
2019-05-05T08:59:43.960Z,4.50
2019-05-05T09:02:15.047Z,4.33
2019-05-05T09:04:44.678Z,4.67
2019-05-05T09:07:13.767Z,4.67
2019-05-05T09:09:44.176Z,4.20
2019-05-05T09:12:13.933Z,5.27
2019-05-05T09:14:44.748Z,4.80
2019-05-05T09:17:13.674Z,4.63
2019-05-05T09:19:42.197Z,4.07
2019-05-05T09:22:10.607Z,4.00
2019-05-05T09:24:58.497Z,3.97
2019-05-05T09:27:34.455Z,4.87
2019-05-05T09:30:04.740Z,5.10
2019-05-05T09:32:34.450Z,5.60
2019-05-05T09:35:04.728Z,5.50
2019-05-05T09:37:34.050Z,5.67
2019-05-05T09:40:04.396Z,5.07
2019-05-05T09:42:34.175Z,6.03
2019-05-05T09:45:04.745Z,5.63
2019-05-05T09:47:34.396Z,6.27
2019-05-05T09:50:05.646Z,5.73
2019-05-05T09:52:34.057Z,6.20
2019-05-05T09:55:03.859Z,6.07
2019-05-05T09:57:34.404Z,5.63
2019-05-05T10:00:08.651Z,5.00
2019-05-05T10:02:37.215Z,5.90
2019-05-05T10:05:07.679Z,5.17
2019-05-05T10:07:36.061Z,5.07
2019-05-05T10:10:06.111Z,4.53
2019-05-05T10:12:34.585Z,4.67
2019-05-05T10:15:07.405Z,5.20
2019-05-05T10:17:34.881Z,5.40
2019-05-05T10:20:04.970Z,4.83
2019-05-05T10:22:34.296Z,5.93
2019-05-05T10:25:06.056Z,5.77
2019-05-05T10:27:44.362Z,5.27
2019-05-05T10:30:06.885Z,5.30
2019-05-05T10:32:35.278Z,5.50
2019-05-05T10:35:05.373Z,5.13
2019-05-05T10:37:34.680Z,4.70
2019-05-05T10:40:07.053Z,4.57
2019-05-05T10:42:50.304Z,5.93
2019-05-05T10:45:24.226Z,4.87
2019-05-05T10:47:52.969Z,5.63
2019-05-05T10:50:21.377Z,4.17
2019-05-05T10:52:49.747Z,3.20
2019-05-05T10:55:19.688Z,3.53
2019-05-05T10:57:48.072Z,3.70
2019-05-05T11:00:20.749Z,3.67
2019-05-05T11:02:49.140Z,4.00
2019-05-05T11:05:17.660Z,3.70
2019-05-05T11:07:46.185Z,4.10
2019-05-05T11:10:17.669Z,4.23
2019-05-05T11:12:46.061Z,4.30
2019-05-05T11:15:14.692Z,4.40
2019-05-05T11:17:43.906Z,4.23
2019-05-05T11:20:14.527Z,4.20
2019-05-05T11:22:43.806Z,4.30
2019-05-05T11:25:13.964Z,3.77
2019-05-05T11:27:43.994Z,4.27
2019-05-05T11:30:17.750Z,3.80
2019-05-05T11:33:04.233Z,3.20
2019-05-05T11:35:40.517Z,3.63
2019-05-05T11:38:08.939Z,2.67
2019-05-05T11:40:37.329Z,3.40
2019-05-05T11:43:05.720Z,3.77
2019-05-05T11:45:34.517Z,3.60
2019-05-05T11:48:03.568Z,3.73
2019-05-05T11:50:34.085Z,2.87
2019-05-05T11:53:03.891Z,3.73
2019-05-05T11:55:33.554Z,3.53
2019-05-05T11:58:03.588Z,3.83
2019-05-05T12:00:34.589Z,3.77
2019-05-05T12:03:03.807Z,3.40
2019-05-05T12:05:33.664Z,3.13
2019-05-05T12:08:03.910Z,3.47
2019-05-05T12:10:35.413Z,2.87
2019-05-05T12:13:05.441Z,3.50
2019-05-05T12:15:34.192Z,3.97
2019-05-05T12:18:03.807Z,3.10
2019-05-05T12:20:38.908Z,3.67
2019-05-05T12:23:07.874Z,3.77
2019-05-05T12:25:50.673Z,3.70
2019-05-05T12:28:43.894Z,3.30
2019-05-05T12:31:14.130Z,3.20
2019-05-05T12:33:44.186Z,3.37
2019-05-05T12:36:15.075Z,3.52
2019-05-05T12:38:43.934Z,3.17
2019-05-05T12:41:14.611Z,3.15
2019-05-05T12:43:44.119Z,3.15
2019-05-05T12:46:14.365Z,3.25
2019-05-05T12:48:44.409Z,3.85
2019-05-05T12:51:14.691Z,4.40
2019-05-05T12:53:42.918Z,3.93
2019-05-05T12:56:11.330Z,3.80
2019-05-05T12:58:39.976Z,4.27
2019-05-05T13:01:19.152Z,3.67
2019-05-05T13:03:48.151Z,4.27
2019-05-05T13:06:16.661Z,3.00
2019-05-05T13:08:45.125Z,3.03
2019-05-05T13:19:47.769Z,2.37
2019-05-05T13:22:17.813Z,2.77
2019-05-05T13:24:56.897Z,3.00
2019-05-05T13:27:26.948Z,2.33
2019-05-05T13:29:55.346Z,2.50
2019-05-05T13:32:24.721Z,2.40
2019-05-05T13:34:54.600Z,2.17
2019-05-05T13:37:24.995Z,2.65
2019-05-05T13:39:53.976Z,2.50
2019-05-05T13:42:24.325Z,2.95
2019-05-05T13:45:03.992Z,2.70
2019-05-05T13:47:34.399Z,3.60
2019-05-05T13:50:15.776Z,4.07
2019-05-05T13:52:44.289Z,5.00
2019-05-05T13:55:14.257Z,4.80
2019-05-05T13:57:44.420Z,5.40
2019-05-05T14:00:15.353Z,5.60
2019-05-05T14:02:43.967Z,5.90
2019-05-05T14:05:13.472Z,5.70
2019-05-05T14:07:43.681Z,6.23
2019-05-05T14:10:14.410Z,7.50
2019-05-05T14:12:43.838Z,7.17
2019-05-05T14:15:17.297Z,7.10
2019-05-05T14:17:46.440Z,7.33
2019-05-05T14:20:15.661Z,6.57
2019-05-05T14:22:44.118Z,6.37
2019-05-05T14:25:15.081Z,6.47
2019-05-05T14:27:54.017Z,6.00
2019-05-05T14:30:37.016Z,6.07
2019-05-05T14:33:07.128Z,5.23
2019-05-05T14:35:37.157Z,5.30
2019-05-05T14:38:07.185Z,4.57
2019-05-05T14:40:35.581Z,4.87
2019-05-05T14:43:04.508Z,5.20
2019-05-05T14:45:34.010Z,5.13
2019-05-05T14:48:03.950Z,5.20
2019-05-05T14:50:34.742Z,5.03
2019-05-05T14:53:04.046Z,5.00
2019-05-05T14:55:33.625Z,5.33
2019-05-05T14:58:05.127Z,5.77
2019-05-05T15:00:33.833Z,5.73
2019-05-05T15:03:03.664Z,5.23
2019-05-05T15:05:40.460Z,5.70
2019-05-05T15:08:10.553Z,5.20
2019-05-05T15:10:46.778Z,4.87
2019-05-05T15:13:15.159Z,4.50
2019-05-05T15:15:43.569Z,5.60
2019-05-05T15:18:11.949Z,5.17
2019-05-05T15:20:40.483Z,5.03
2019-05-05T15:23:08.925Z,5.40
2019-05-05T15:25:37.327Z,5.60
2019-05-05T15:28:05.801Z,4.60
2019-05-05T15:30:34.200Z,4.57
2019-05-05T15:33:04.508Z,4.83
2019-05-05T15:35:33.964Z,4.80
2019-05-05T15:38:04.500Z,5.07
2019-05-05T15:40:33.736Z,4.40
2019-05-05T15:43:03.823Z,2.97
2019-05-05T15:45:34.101Z,3.30
2019-05-05T15:48:04.596Z,3.47
2019-05-05T15:50:32.973Z,3.37
2019-05-05T15:53:01.435Z,4.03
2019-05-05T15:55:29.844Z,4.30
2019-05-05T15:57:58.245Z,4.00
2019-05-05T16:00:26.773Z,3.80
2019-05-05T16:02:55.209Z,4.17
2019-05-05T16:05:24.266Z,3.60
2019-05-05T16:07:54.256Z,5.07
2019-05-05T16:10:25.214Z,3.97
2019-05-05T16:12:54.196Z,4.73
2019-05-05T16:15:30.096Z,4.40
2019-05-05T16:18:00.124Z,5.03
2019-05-05T16:20:44.369Z,4.60
2019-05-05T16:23:30.213Z,5.73
2019-05-05T16:25:58.866Z,4.40
2019-05-05T16:28:27.396Z,5.90
2019-05-05T16:30:56.136Z,4.73
2019-05-05T16:33:24.660Z,4.90
2019-05-05T16:35:53.067Z,5.27
2019-05-05T16:38:21.458Z,5.37
2019-05-05T16:40:49.849Z,4.63
2019-05-05T16:43:18.256Z,5.50
2019-05-05T16:45:46.649Z,5.10
2019-05-05T16:48:15.052Z,4.60
2019-05-05T16:50:44.512Z,4.67
2019-05-05T16:53:17.560Z,4.63
2019-05-05T16:55:47.601Z,5.30
2019-05-05T16:58:16.872Z,4.83
2019-05-05T17:00:45.268Z,5.07
2019-05-05T17:03:13.668Z,4.90
2019-05-05T17:05:44.131Z,5.30
2019-05-05T17:08:13.944Z,4.73
2019-05-05T17:10:43.515Z,5.53
2019-05-05T17:13:24.149Z,5.33
2019-05-05T17:15:57.169Z,5.03
2019-05-05T17:18:35.187Z,4.63
2019-05-05T17:21:04.075Z,4.63
2019-05-05T17:23:34.174Z,5.10
2019-05-05T17:26:02.609Z,5.30
2019-05-05T17:28:31.001Z,5.23
2019-05-05T17:30:59.397Z,5.47
2019-05-05T17:33:27.789Z,5.33
2019-05-05T17:35:56.188Z,4.80
2019-05-05T17:38:24.595Z,5.13
2019-05-05T17:40:54.628Z,5.30
2019-05-05T17:43:27.699Z,5.83
2019-05-05T17:46:03.867Z,5.57
2019-05-05T17:48:37.065Z,5.53
2019-05-05T17:51:13.910Z,5.20
2019-05-05T17:53:44.569Z,6.63
2019-05-05T17:56:14.604Z,5.27
2019-05-05T17:58:44.499Z,5.20
2019-05-05T18:01:13.257Z,5.63
2019-05-05T18:03:43.547Z,6.03
2019-05-05T18:06:31.981Z,4.10
2019-05-05T18:09:02.041Z,4.17
2019-05-05T18:11:48.423Z,4.07
2019-05-05T18:14:24.592Z,4.13
2019-05-05T18:16:54.268Z,4.00
2019-05-05T18:19:24.761Z,3.83
2019-05-05T18:21:55.047Z,4.10
2019-05-05T18:24:24.290Z,3.90
2019-05-05T18:26:53.785Z,4.33
2019-05-05T18:29:24.257Z,4.63
2019-05-05T18:31:53.591Z,4.53
2019-05-05T18:34:23.592Z,5.03
2019-05-05T18:36:54.239Z,5.13
2019-05-05T18:39:24.534Z,4.53
2019-05-05T18:42:13.971Z,4.47
2019-05-05T18:44:44.441Z,5.50
2019-05-05T18:47:20.256Z,5.17
2019-05-05T18:49:48.644Z,5.20
2019-05-05T18:52:17.045Z,4.60
2019-05-05T18:54:45.432Z,3.87
2019-05-05T18:57:13.889Z,4.23
2019-05-05T18:59:44.501Z,4.47
2019-05-05T19:02:14.397Z,4.37
2019-05-05T19:04:48.559Z,5.07
2019-05-05T19:07:20.373Z,4.43
2019-05-05T19:09:54.019Z,4.37
2019-05-05T19:12:18.874Z,4.93
2019-05-05T19:14:47.275Z,4.83
2019-05-05T19:17:15.658Z,4.83
2019-05-05T19:19:47.089Z,4.97
2019-05-05T19:22:17.210Z,5.77
2019-05-05T19:24:45.601Z,5.17
2019-05-05T19:27:14.259Z,5.73
2019-05-05T19:29:44.176Z,5.27
2019-05-05T19:32:13.400Z,5.57
2019-05-05T19:34:43.513Z,5.23
2019-05-05T19:37:14.032Z,6.10
2019-05-05T19:39:42.855Z,5.63
2019-05-05T19:42:11.269Z,6.03
2019-05-05T19:44:39.652Z,6.77
2019-05-05T19:47:15.381Z,6.00
2019-05-05T19:49:45.457Z,6.10
2019-05-05T19:52:13.935Z,6.43
2019-05-05T19:54:46.869Z,6.17
2019-05-05T19:57:14.297Z,6.73
2019-05-05T19:59:44.576Z,6.33
2019-05-05T20:02:12.673Z,6.77
2019-05-05T20:04:41.061Z,7.43
2019-05-05T20:07:09.449Z,7.37
2019-05-05T20:09:37.837Z,7.03
2019-05-05T20:12:06.241Z,7.17
2019-05-05T20:14:34.633Z,8.13
2019-05-05T20:17:10.653Z,7.30
2019-05-05T20:19:40.690Z,8.63
2019-05-05T20:22:09.096Z,7.67
2019-05-05T20:24:37.482Z,8.63
2019-05-05T20:27:05.878Z,8.53
2019-05-05T20:29:37.363Z,8.40
2019-05-05T20:32:04.529Z,8.63
2019-05-05T20:34:34.550Z,8.70
2019-05-05T20:37:10.352Z,8.30
2019-05-05T20:39:38.730Z,7.63
2019-05-05T20:42:09.720Z,7.67
2019-05-05T20:44:39.688Z,9.07
2019-05-05T20:47:08.094Z,8.87
2019-05-05T20:49:36.476Z,8.57
2019-05-05T20:52:04.862Z,8.23
2019-05-05T20:54:33.337Z,8.63
2019-05-05T20:57:01.782Z,8.70
2019-05-05T20:59:31.002Z,9.67
2019-05-05T21:02:00.244Z,9.33
2019-05-05T21:04:28.633Z,9.30
2019-05-05T21:06:57.024Z,8.87
2019-05-05T21:09:25.476Z,9.60
2019-05-05T21:11:54.797Z,9.17
2019-05-05T21:14:33.720Z,10.50
2019-05-05T21:16:54.727Z,9.07
2019-05-05T21:19:24.792Z,9.00
2019-05-05T21:21:55.349Z,9.13
2019-05-05T21:24:24.035Z,9.57
2019-05-05T21:26:54.652Z,10.30
2019-05-05T21:29:23.723Z,10.20
2019-05-05T21:31:54.804Z,10.30
2019-05-05T21:34:24.774Z,11.40
2019-05-05T21:36:54.063Z,10.67
2019-05-05T21:39:24.894Z,10.33
2019-05-05T21:41:53.240Z,10.93
2019-05-05T21:44:21.628Z,10.53
2019-05-05T21:46:50.013Z,10.60
2019-05-05T21:49:18.417Z,10.33
2019-05-05T21:51:48.442Z,10.00
2019-05-05T21:54:24.636Z,9.23
2019-05-05T21:56:54.661Z,8.80
2019-05-05T21:59:23.659Z,10.07
2019-05-05T22:01:52.566Z,9.30
2019-05-05T22:04:20.949Z,8.40
2019-05-05T22:06:49.336Z,8.67
2019-05-05T22:09:17.724Z,8.83
2019-05-05T22:11:46.122Z,8.67
2019-05-05T22:14:14.513Z,8.23
2019-05-05T22:16:44.569Z,8.40
2019-05-05T22:19:14.579Z,8.67
2019-05-05T22:21:45.746Z,7.80
2019-05-05T22:24:21.751Z,8.90
2019-05-05T22:26:50.128Z,9.27
2019-05-05T22:29:18.608Z,9.33
2019-05-05T22:31:47.068Z,8.63
2019-05-05T22:34:15.441Z,9.07
2019-05-05T22:36:44.802Z,10.87
2019-05-05T22:39:17.054Z,9.60
2019-05-05T22:41:45.132Z,10.13
2019-05-05T22:44:14.040Z,9.77
2019-05-05T22:46:42.993Z,10.30
2019-05-05T22:49:11.466Z,10.90
2019-05-05T22:51:39.924Z,11.40
2019-05-05T22:54:09.067Z,11.20
2019-05-05T22:56:37.773Z,10.90
2019-05-05T22:59:06.397Z,10.80
2019-05-05T23:01:34.793Z,11.17
2019-05-05T23:04:20.949Z,10.10
2019-05-05T23:06:50.993Z,10.67
2019-05-05T23:09:19.388Z,10.67
2019-05-05T23:11:47.772Z,11.53
2019-05-05T23:14:28.437Z,11.27
2019-05-05T23:17:10.049Z,12.10
2019-05-05T23:19:48.990Z,11.73
2019-05-05T23:22:19.021Z,11.67
2019-05-05T23:25:05.538Z,12.67
2019-05-05T23:27:50.829Z,13.53
2019-05-05T23:30:37.850Z,14.63
2019-05-05T23:32:54.954Z,14.90
2019-05-05T23:35:23.905Z,14.27
2019-05-05T23:37:55.052Z,13.93
2019-05-05T23:40:28.036Z,14.27
2019-05-05T23:42:56.443Z,14.13
2019-05-05T23:45:25.100Z,14.47
2019-05-05T23:47:54.682Z,14.77
2019-05-05T23:50:24.541Z,15.60
2019-05-05T23:52:54.581Z,14.73
2019-05-05T23:55:23.938Z,14.97
2019-05-05T23:57:54.601Z,16.03
